Time;durP1;ratioP1;P1;durP2;ratioP2;P2;SDS_P1;SDS_P2;PMS_P1;PMS_P2;Temp;Humidity;BMP_temperature;BMP_pressure;BME280_temperature;BME280_humidity;BME280_pressure;Samples;Min_cycle;Max_cycle;Signal;HPM_P1;HPM_P2
2023/08/30 00:02:10;;;;;;;1.65;1.50;;;;;;;21.26;79.46;100487.88;21075438;28;20384;-66
2023/08/30 00:12:12;;;;;;;1.45;1.35;;;;;;;21.25;79.26;100482.63;21094744;28;20056;-66
2023/08/30 00:22:14;;;;;;;2.22;1.50;;;;;;;21.22;79.25;100483.81;21102141;28;20105;-66
2023/08/30 00:32:15;;;;;;;1.40;1.30;;;;;;;21.22;78.85;100489.22;21072525;28;20048;-66
2023/08/30 00:42:17;;;;;;;2.85;1.60;;;;;;;21.21;78.82;100482.13;21076149;28;20052;-67
2023/08/30 00:52:19;;;;;;;2.92;1.70;;;;;;;21.18;78.76;100471.59;21072193;28;20048;-66
2023/08/30 01:02:23;;;;;;;1.48;1.38;;;;;;;21.18;78.44;100471.59;21071185;28;20067;-66
2023/08/30 01:12:40;;;;;;;2.75;1.77;;;;;;;21.15;77.60;100471.94;21090306;28;20039;-66
2023/08/30 01:23:03;;;;;;;1.90;1.75;;;;;;;21.08;76.58;100465.50;21078681;28;20056;-66
2023/08/30 01:33:05;;;;;;;2.15;1.90;;;;;;;21.01;76.41;100466.19;21079196;28;20044;-66
2023/08/30 01:43:08;;;;;;;3.22;2.30;;;;;;;20.95;76.21;100456.03;21096194;28;20044;-66
2023/08/30 01:53:12;;;;;;;1.70;1.60;;;;;;;20.92;76.21;100448.25;21123270;28;20031;-66
2023/08/30 02:03:14;;;;;;;1.70;1.60;;;;;;;20.90;75.92;100439.47;21081108;28;20052;-66
2023/08/30 02:13:17;;;;;;;2.55;1.92;;;;;;;20.88;75.77;100435.22;21083390;28;20109;-66
2023/08/30 02:23:23;;;;;;;2.13;1.58;;;;;;;20.85;75.71;100423.72;21096777;28;20058;-66
2023/08/30 02:33:24;;;;;;;2.22;1.77;;;;;;;20.83;75.48;100425.75;21110613;28;20054;-67
2023/08/30 02:43:26;;;;;;;2.28;1.73;;;;;;;20.82;75.01;100425.94;21116647;28;21408;-66
2023/08/30 02:53:28;;;;;;;2.00;1.80;;;;;;;20.79;74.62;100410.88;21120507;28;20130;-66
2023/08/30 03:03:30;;;;;;;1.95;1.67;;;;;;;20.78;74.42;100411.03;21112977;27;20047;-66
2023/08/30 03:13:32;;;;;;;1.90;1.50;;;;;;;20.76;74.34;100407.59;21081793;28;20051;-66
2023/08/30 03:23:35;;;;;;;2.25;1.38;;;;;;;20.77;74.44;100384.94;21103788;28;20060;-66
2023/08/30 03:33:37;;;;;;;1.58;1.48;;;;;;;20.79;74.56;100378.41;21106268;28;20071;-66
2023/08/30 03:43:39;;;;;;;1.67;1.42;;;;;;;20.81;74.50;100373.66;21078469;28;20098;-66
2023/08/30 03:53:42;;;;;;;2.00;1.57;;;;;;;20.82;74.56;100363.72;21097521;28;20055;-66
2023/08/30 04:03:44;;;;;;;1.42;1.33;;;;;;;20.82;74.20;100347.47;21088723;28;20105;-66
2023/08/30 04:13:46;;;;;;;1.70;1.40;;;;;;;20.82;74.09;100347.47;21090575;28;20051;-66
2023/08/30 04:23:48;;;;;;;2.10;1.65;;;;;;;20.77;73.38;100334.41;21090175;28;20056;-65
2023/08/30 04:33:52;;;;;;;4.28;1.50;;;;;;;20.71;74.12;100314.28;21081780;28;20047;-65
2023/08/30 04:43:54;;;;;;;;;;;;;;;20.64;74.33;100307.88;21079329;28;20040;-66
2023/08/30 04:53:56;;;;;;;2.30;1.80;;;;;;;20.58;74.86;100303.16;21114213;28;19926;-65
2023/08/30 05:03:58;;;;;;;1.80;1.70;;;;;;;20.58;74.65;100298.59;21152574;28;20458;-66
2023/08/30 05:14:00;;;;;;;3.63;1.83;;;;;;;20.57;74.36;100301.44;21159550;28;20051;-65
2023/08/30 05:24:02;;;;;;;2.47;1.80;;;;;;;20.51;74.49;100294.03;21107187;28;20052;-66
2023/08/30 05:34:04;;;;;;;2.40;1.98;;;;;;;20.56;74.56;100294.34;21105555;28;20093;-65
2023/08/30 05:44:35;;;;;;;2.00;1.63;;;;;;;20.57;75.45;100282.53;21100498;28;20565;-61
2023/08/30 05:54:37;;;;;;;2.63;1.70;;;;;;;20.60;75.40;100275.94;21124671;28;20100;-61
2023/08/30 06:04:39;;;;;;;2.83;1.77;;;;;;;20.57;75.70;100272.56;21137547;28;20053;-60
2023/08/30 06:15:26;;;;;;;1.88;1.38;;;;;;;20.64;75.82;100263.78;21082778;28;20045;-61
2023/08/30 06:26:02;;;;;;;3.22;1.75;;;;;;;20.68;75.81;100260.53;21062643;28;20389;-60
2023/08/30 06:36:05;;;;;;;1.80;1.55;;;;;;;20.68;75.70;100248.88;21098595;28;20051;-62
2023/08/30 06:46:06;;;;;;;2.10;1.33;;;;;;;20.72;75.77;100251.06;21082564;28;20047;-61
2023/08/30 06:56:08;;;;;;;2.22;1.60;;;;;;;20.75;75.70;100249.03;21080355;28;20722;-61
2023/08/30 07:06:10;;;;;;;1.88;1.58;;;;;;;20.76;75.70;100237.19;21081616;28;20059;-61
2023/08/30 07:16:12;;;;;;;1.90;1.50;;;;;;;20.82;76.04;100239.28;21080895;28;20051;-61
2023/08/30 07:26:14;;;;;;;1.50;1.38;;;;;;;20.85;75.83;100239.75;21086207;28;20557;-61
2023/08/30 07:36:15;;;;;;;2.13;1.70;;;;;;;20.88;75.87;100227.75;21045367;28;20046;-61
2023/08/30 07:46:17;;;;;;;2.17;1.80;;;;;;;20.92;75.75;100212.84;21080562;28;20052;-60
2023/08/30 07:56:19;;;;;;;1.58;1.40;;;;;;;21.10;77.12;100209.94;21059312;28;20048;-62
2023/08/30 08:06:21;;;;;;;3.10;2.20;;;;;;;21.48;77.29;100203.84;21050961;28;20055;-62
2023/08/30 08:16:22;;;;;;;2.50;2.08;;;;;;;21.73;74.46;100199.16;21066334;28;20717;-62
2023/08/30 08:26:25;;;;;;;2.35;1.80;;;;;;;21.71;73.09;100209.31;21065567;28;20039;-63
2023/08/30 08:36:27;;;;;;;1.85;1.60;;;;;;;21.64;73.26;100221.91;21076567;28;20060;-62
2023/08/30 08:46:29;;;;;;;3.40;2.03;;;;;;;21.59;73.61;100224.28;21055501;28;20052;-62
2023/08/30 08:56:33;;;;;;;2.30;1.90;;;;;;;21.56;73.86;100222.75;21053292;28;20097;-62
2023/08/30 09:06:36;;;;;;;2.30;1.80;;;;;;;21.55;73.71;100212.13;21082163;28;20060;-62
2023/08/30 09:16:38;;;;;;;3.30;2.17;;;;;;;21.53;73.58;100214.16;21079944;28;20500;-62
2023/08/30 09:26:47;;;;;;;2.97;2.10;;;;;;;21.49;73.82;100215.53;21090610;28;20045;-62
2023/08/30 09:36:50;;;;;;;3.08;1.98;;;;;;;21.48;74.04;100227.38;21077373;28;20067;-62
2023/08/30 09:46:53;;;;;;;3.05;2.28;;;;;;;21.48;74.90;100224.69;21075380;28;20055;-63
2023/08/30 09:56:57;;;;;;;4.30;2.20;;;;;;;21.51;76.19;100216.19;21053030;28;20052;-63
2023/08/30 10:07:03;;;;;;;4.05;2.38;;;;;;;21.50;76.50;100220.75;21083430;28;20056;-63
2023/08/30 10:17:07;;;;;;;3.05;2.10;;;;;;;21.49;76.40;100197.41;21054892;28;20078;-63
2023/08/30 10:27:09;;;;;;;3.13;2.10;;;;;;;21.47;76.63;100168.84;21066981;28;20139;-63
2023/08/30 10:37:11;;;;;;;4.05;2.22;;;;;;;21.50;77.59;100163.88;21106848;28;20050;-64
2023/08/30 10:47:22;;;;;;;4.53;2.55;;;;;;;21.60;77.91;100150.13;21087601;28;20377;-63
2023/08/30 10:57:25;;;;;;;3.13;2.25;;;;;;;21.62;77.76;100158.06;21065039;28;20049;-64
2023/08/30 11:07:27;;;;;;;2.55;2.00;;;;;;;21.63;78.17;100157.03;21078909;28;20055;-62
2023/08/30 11:17:29;;;;;;;4.47;2.10;;;;;;;21.62;79.50;100141.81;21085376;28;20047;-62
2023/08/30 11:27:30;;;;;;;4.10;1.85;;;;;;;21.57;80.03;100126.94;21075816;28;20117;-63
2023/08/30 11:37:33;;;;;;;3.17;2.00;;;;;;;21.59;80.99;100133.00;21065132;28;20048;-62
2023/08/30 11:47:34;;;;;;;4.13;1.95;;;;;;;21.60;81.50;100123.03;21052452;28;20040;-61
2023/08/30 11:57:36;;;;;;;3.78;2.15;;;;;;;21.64;82.51;100120.81;21075372;28;20566;-62
2023/08/30 12:07:40;;;;;;;4.28;2.13;;;;;;;21.66;84.22;100111.50;21071410;28;20058;-62
2023/08/30 12:17:41;;;;;;;2.70;2.13;;;;;;;21.70;85.08;100101.16;21079224;28;20162;-61
2023/08/30 12:27:43;;;;;;;3.00;1.88;;;;;;;21.74;86.68;100086.22;21057471;28;20593;-62
2023/08/30 12:37:45;;;;;;;3.33;1.63;;;;;;;21.77;86.51;100074.19;21056949;28;20504;-62
2023/08/30 12:47:47;;;;;;;6.35;3.38;;;;;;;21.91;99.14;100065.25;21081982;28;20047;-62
2023/08/30 12:57:49;;;;;;;6.03;3.72;;;;;;;22.08;100.00;100063.22;21052416;28;20048;-62
2023/08/30 13:07:51;;;;;;;5.18;3.80;;;;;;;22.13;100.00;100060.81;21056510;28;20519;-62
2023/08/30 13:17:53;;;;;;;3.55;2.92;;;;;;;22.12;100.00;100056.44;21083400;28;20048;-61
2023/08/30 13:27:55;;;;;;;3.55;2.53;;;;;;;22.09;100.00;100048.63;21090205;28;20674;-61
2023/08/30 13:37:56;;;;;;;3.72;2.65;;;;;;;22.05;100.00;100050.03;21104365;28;20055;-61
2023/08/30 13:47:59;;;;;;;2.55;1.98;;;;;;;22.01;100.00;100054.13;21075624;28;20048;-61
2023/08/30 13:58:01;;;;;;;2.25;1.70;;;;;;;21.99;100.00;100040.78;21086062;28;20137;-61
2023/08/30 14:08:03;;;;;;;2.17;1.40;;;;;;;21.94;98.44;100031.53;21093410;28;20298;-62
2023/08/30 14:18:05;;;;;;;1.55;1.30;;;;;;;21.93;96.20;100040.69;21096206;28;20385;-61
2023/08/30 14:28:07;;;;;;;1.30;1.05;;;;;;;21.90;94.76;100054.59;21067439;28;20385;-61
2023/08/30 14:38:10;;;;;;;1.98;0.95;;;;;;;21.90;93.47;100077.13;21069226;28;20035;-61
2023/08/30 14:48:12;;;;;;;0.88;0.80;;;;;;;21.93;92.30;100089.44;21083145;28;20047;-66
2023/08/30 14:58:14;;;;;;;1.35;0.90;;;;;;;21.94;91.77;100104.69;21077625;28;20108;-61
2023/08/30 15:08:16;;;;;;;1.92;0.70;;;;;;;21.95;91.51;100114.50;21096924;28;20105;-61
2023/08/30 15:18:18;;;;;;;1.23;0.80;;;;;;;21.95;90.36;100109.94;21067955;28;20048;-61
2023/08/30 15:28:20;;;;;;;1.00;0.80;;;;;;;21.94;89.36;100101.97;21085809;28;20059;-63
2023/08/30 15:38:22;;;;;;;1.27;0.68;;;;;;;21.93;89.10;100112.00;21083035;28;20060;-63
2023/08/30 15:48:24;;;;;;;5.13;1.35;;;;;;;21.91;90.28;100105.06;21090927;28;20048;-63
2023/08/30 15:58:26;;;;;;;1.88;1.10;;;;;;;21.90;91.83;100111.50;21089258;28;20059;-60
2023/08/30 16:08:28;;;;;;;4.18;2.70;;;;;;;21.96;93.91;100121.59;21077051;28;20052;-57
2023/08/30 16:18:30;;;;;;;2.67;1.95;;;;;;;22.10;95.67;100144.34;21074440;27;20063;-58
2023/08/30 16:28:32;;;;;;;1.75;1.30;;;;;;;22.20;95.10;100144.13;21101620;28;20553;-57
2023/08/30 16:38:44;;;;;;;1.33;1.00;;;;;;;22.25;94.36;100134.38;21079764;28;20475;-57
2023/08/30 16:48:45;;;;;;;1.35;0.88;;;;;;;22.26;93.75;100148.78;21094733;28;20058;-57
2023/08/30 16:58:47;;;;;;;3.58;0.90;;;;;;;22.19;93.20;100154.09;21091285;28;20495;-57
2023/08/30 17:08:49;;;;;;;1.75;0.70;;;;;;;22.14;91.97;100168.22;21101033;28;20162;-57
2023/08/30 17:18:51;;;;;;;1.52;0.70;;;;;;;22.11;92.27;100184.00;21096080;28;20117;-57
2023/08/30 17:28:52;;;;;;;1.83;0.80;;;;;;;22.12;91.46;100182.97;21118614;28;20044;-57
2023/08/30 17:38:54;;;;;;;1.77;0.85;;;;;;;22.08;89.52;100185.19;21119603;28;20081;-56
2023/08/30 17:48:57;;;;;;;2.40;0.98;;;;;;;21.98;87.54;100174.63;21091513;28;20499;-57
2023/08/30 17:58:59;;;;;;;1.25;0.60;;;;;;;21.93;87.36;100178.88;21081596;28;20043;-57
2023/08/30 18:09:01;;;;;;;3.88;0.80;;;;;;;21.83;86.29;100196.22;21099849;28;20052;-56
2023/08/30 18:19:03;;;;;;;2.20;0.63;;;;;;;21.77;85.60;100220.47;21115350;28;20439;-57
2023/08/30 18:29:06;;;;;;;1.10;0.70;;;;;;;21.72;85.23;100229.16;21088071;28;20105;-59
2023/08/30 18:39:08;;;;;;;1.52;0.75;;;;;;;21.68;84.88;100225.94;21097966;28;20051;-57
2023/08/30 18:49:10;;;;;;;1.85;0.68;;;;;;;21.65;84.71;100231.72;21093962;28;20055;-57
2023/08/30 18:59:12;;;;;;;2.10;0.90;;;;;;;21.63;84.23;100236.44;21088033;28;20044;-57
2023/08/30 19:09:13;;;;;;;1.60;0.80;;;;;;;21.59;83.89;100232.41;21106229;28;20051;-57
2023/08/30 19:19:15;;;;;;;1.80;0.65;;;;;;;21.57;83.67;100251.53;21101912;28;20052;-57
2023/08/30 19:29:17;;;;;;;1.70;1.02;;;;;;;21.52;83.38;100251.22;21005732;28;20052;-57
2023/08/30 19:39:19;;;;;;;2.50;0.70;;;;;;;21.49;83.00;100261.56;20993632;28;20519;-57
2023/08/30 19:49:22;;;;;;;1.45;0.63;;;;;;;21.45;82.78;100269.19;20993464;28;20052;-57
2023/08/30 19:59:23;;;;;;;1.50;0.77;;;;;;;21.41;82.07;100286.81;21085539;28;20054;-57
2023/08/30 20:09:25;;;;;;;1.63;0.80;;;;;;;21.35;80.78;100295.63;21088429;28;20048;-57
2023/08/30 20:19:27;;;;;;;1.25;0.60;;;;;;;21.25;80.20;100288.56;21097780;28;20503;-56
2023/08/30 20:29:29;;;;;;;1.23;0.65;;;;;;;21.23;81.36;100285.19;21073771;28;20116;-57
2023/08/30 20:39:31;;;;;;;2.20;1.10;;;;;;;21.21;82.41;100289.94;21074092;28;20048;-57
2023/08/30 20:49:33;;;;;;;1.60;0.77;;;;;;;21.21;82.03;100299.91;21072118;28;20060;-57
2023/08/30 20:59:35;;;;;;;1.70;0.85;;;;;;;21.17;81.66;100302.09;21072442;28;20056;-57
2023/08/30 21:09:37;;;;;;;2.75;1.05;;;;;;;21.12;81.43;100309.88;21073073;28;20181;-57
2023/08/30 21:19:38;;;;;;;1.98;0.70;;;;;;;21.09;81.07;100312.94;21071065;28;20056;-57
2023/08/30 21:29:40;;;;;;;1.23;0.80;;;;;;;21.05;80.47;100307.03;21071842;28;20075;-57
2023/08/30 21:39:44;;;;;;;1.27;0.63;;;;;;;21.03;80.00;100308.22;21071126;28;20386;-57
2023/08/30 21:49:46;;;;;;;1.35;0.90;;;;;;;21.00;79.58;100306.72;21070280;28;20052;-57
2023/08/30 21:59:48;;;;;;;0.98;0.80;;;;;;;20.96;79.17;100308.91;21081025;28;20063;-57
2023/08/30 22:09:50;;;;;;;1.40;0.77;;;;;;;20.94;78.51;100315.50;21085791;28;20055;-57
2023/08/30 22:19:51;;;;;;;1.48;0.68;;;;;;;20.91;78.19;100311.28;21083970;28;20056;-56
2023/08/30 22:29:53;;;;;;;1.23;0.73;;;;;;;20.76;78.15;100289.44;21084967;28;20136;-57
2023/08/30 22:39:56;;;;;;;0.60;0.40;;;;;;;20.90;78.58;100322.25;21082732;28;20052;-57
2023/08/30 22:49:57;;;;;;;1.15;0.65;;;;;;;20.93;78.15;100330.91;21082185;28;20059;-57
2023/08/30 23:00:03;;;;;;;1.15;0.90;;;;;;;20.86;77.87;100305.53;21082076;28;20044;-57
2023/08/30 23:10:07;;;;;;;0.90;0.50;;;;;;;20.90;77.69;100316.84;21080426;28;20062;-57
2023/08/30 23:20:14;;;;;;;0.60;0.38;;;;;;;20.88;77.33;100321.59;21079621;28;20055;-57
2023/08/30 23:30:16;;;;;;;0.70;0.47;;;;;;;20.84;77.03;100330.03;21075140;28;20398;-58
2023/08/30 23:40:21;;;;;;;2.10;0.50;;;;;;;20.83;76.82;100341.06;20993935;28;20813;-57
2023/08/30 23:50:23;;;;;;;0.70;0.40;;;;;;;20.79;76.42;100334.28;20993708;28;20059;-57
